createdAt,value
2023-02-08T00:02:03.665Z,102836.98
2023-02-08T00:04:08.273Z,102837.08
2023-02-08T00:06:12.820Z,102841.99
2023-02-08T00:08:17.186Z,102849.68
2023-02-08T00:10:21.668Z,102849.28
2023-02-08T00:12:26.044Z,102851.5
2023-02-08T00:14:30.440Z,102859.03
2023-02-08T00:16:34.836Z,102858.31
2023-02-08T00:18:39.248Z,102861.66
2023-02-08T00:20:43.955Z,102858.06
2023-02-08T00:22:48.409Z,102860.39
2023-02-08T00:24:52.834Z,102864.86
2023-02-08T00:26:57.302Z,102863.97
2023-02-08T00:29:01.674Z,102862.83
2023-02-08T00:31:06.370Z,102866.52
2023-02-08T00:33:11.060Z,102871.09
2023-02-08T00:35:15.474Z,102874.75
2023-02-08T00:37:19.862Z,102869.42
2023-02-08T00:39:24.233Z,102867.48
2023-02-08T00:41:28.673Z,102865.02
2023-02-08T00:43:33.079Z,102861.04
2023-02-08T00:45:37.555Z,102857.67
2023-02-08T00:47:42.114Z,102858.02
2023-02-08T00:49:46.514Z,102855.44
2023-02-08T00:51:50.923Z,102861.04
2023-02-08T00:53:55.319Z,102860.13
2023-02-08T00:55:59.691Z,102862.2
2023-02-08T00:58:04.132Z,102859.06
2023-02-08T01:00:08.595Z,102861.78
2023-02-08T01:02:13.136Z,102857.38
2023-02-08T01:04:17.712Z,102861.47
2023-02-08T01:06:22.129Z,102856.22
2023-02-08T01:08:26.553Z,102857.09
2023-02-08T01:10:30.961Z,102863.33
2023-02-08T01:12:35.340Z,102864.25
2023-02-08T01:14:39.752Z,102863.23
2023-02-08T01:16:44.169Z,102866.7
2023-02-08T01:18:48.501Z,102860.63
2023-02-08T01:20:52.889Z,102861.72
2023-02-08T01:22:57.366Z,102860.59
2023-02-08T01:25:01.764Z,102856.75
2023-02-08T01:27:06.142Z,102852.88
2023-02-08T01:29:10.532Z,102845.36
2023-02-08T01:31:15.087Z,102849.7
2023-02-08T01:33:19.559Z,102844.19
2023-02-08T01:35:23.935Z,102838.36
2023-02-08T01:37:28.318Z,102841.44
2023-02-08T01:39:32.705Z,102841.44
2023-02-08T01:41:37.100Z,102840.89
2023-02-08T01:43:41.500Z,102841
2023-02-08T01:45:46.010Z,102843.13
2023-02-08T01:47:50.461Z,102841.66
2023-02-08T01:49:54.833Z,102839.69
2023-02-08T01:51:59.259Z,102841.81
2023-02-08T01:54:03.666Z,102837.78
2023-02-08T01:56:08.061Z,102839.04
2023-02-08T01:58:12.443Z,102838.16
2023-02-08T02:00:16.828Z,102841.92
2023-02-08T02:02:21.366Z,102840.92
2023-02-08T02:04:26.005Z,102833.9
2023-02-08T02:06:30.510Z,102836.61
2023-02-08T02:08:34.938Z,102836.3
2023-02-08T02:10:39.972Z,102831.03
2023-02-08T02:12:44.906Z,102826.57
2023-02-08T02:14:49.315Z,102822.07
2023-02-08T02:16:53.740Z,102825.78
2023-02-08T02:18:58.239Z,102818.95
2023-02-08T02:21:02.648Z,102822.42
2023-02-08T02:23:07.025Z,102817.49
2023-02-08T02:25:11.412Z,102819.42
2023-02-08T02:27:15.800Z,102816.23
2023-02-08T02:29:20.209Z,102817.27
2023-02-08T02:31:24.781Z,102813.68
2023-02-08T02:33:29.256Z,102816.17
2023-02-08T02:35:33.652Z,102821.92
2023-02-08T02:37:38.054Z,102819.81
2023-02-08T02:39:42.480Z,102823
2023-02-08T02:41:46.869Z,102822.16
2023-02-08T02:43:51.224Z,102819.28
2023-02-08T02:45:55.776Z,102818.17
2023-02-08T02:48:00.258Z,102821.42
2023-02-08T02:50:04.689Z,102823.42
2023-02-08T02:52:09.123Z,102823.11
2023-02-08T02:54:13.620Z,102826.03
2023-02-08T02:56:18.044Z,102825.42
2023-02-08T02:58:22.410Z,102823.66
2023-02-08T03:00:26.814Z,102825.3
2023-02-08T03:02:31.171Z,102817.33
2023-02-08T03:05:27.039Z,102818.09
2023-02-08T03:07:31.406Z,102820.16
2023-02-08T03:09:35.804Z,102824.63
2023-02-08T03:11:40.221Z,102826.23
2023-02-08T03:13:44.627Z,102826.25
2023-02-08T03:15:49.061Z,102829.83
2023-02-08T03:17:53.449Z,102831.16
2023-02-08T03:19:57.870Z,102832.02
2023-02-08T03:22:02.223Z,102830.41
2023-02-08T03:24:06.635Z,102834.14
2023-02-08T03:26:11.102Z,102837.18
2023-02-08T03:28:15.785Z,102837.13
2023-02-08T03:30:20.308Z,102845
2023-02-08T03:32:24.690Z,102843.11
2023-02-08T03:34:29.059Z,102843.43
2023-02-08T03:36:33.441Z,102843.59
2023-02-08T03:38:37.869Z,102849.88
2023-02-08T03:40:43.159Z,102848.28
2023-02-08T03:42:47.623Z,102849.83
2023-02-08T03:44:52.008Z,102851.32
2023-02-08T03:46:56.471Z,102851.06
2023-02-08T03:49:00.872Z,102846.63
2023-02-08T03:51:05.333Z,102850.69
2023-02-08T03:53:09.703Z,102853.78
2023-02-08T03:55:14.121Z,102851.17
2023-02-08T03:57:18.499Z,102852.89
2023-02-08T03:59:22.858Z,102857.45
2023-02-08T04:01:27.383Z,102860.41
2023-02-08T04:03:31.796Z,102858.91
2023-02-08T04:05:36.162Z,102856.95
2023-02-08T04:07:40.556Z,102855.14
2023-02-08T04:09:44.925Z,102853.57
2023-02-08T04:11:49.321Z,102852.13
2023-02-08T04:13:53.689Z,102849.8
2023-02-08T04:15:58.178Z,102850.21
2023-02-08T04:18:02.716Z,102849.59
2023-02-08T04:20:07.075Z,102854.08
2023-02-08T04:22:11.451Z,102852.73
2023-02-08T04:24:15.947Z,102852.7
2023-02-08T04:26:20.376Z,102849.8
2023-02-08T04:28:24.880Z,102851.8
2023-02-08T04:30:29.373Z,102853.3
2023-02-08T04:32:33.902Z,102850
2023-02-08T04:34:38.345Z,102852.84
2023-02-08T04:36:42.718Z,102852.69
2023-02-08T04:38:47.153Z,102852.66
2023-02-08T04:40:51.536Z,102854.69
2023-02-08T04:42:55.954Z,102856.81
2023-02-08T04:45:00.350Z,102851.97
2023-02-08T04:47:04.730Z,102859.02
2023-02-08T04:49:09.133Z,102859.67
2023-02-08T04:51:13.566Z,102857.79
2023-02-08T04:53:17.955Z,102857.47
2023-02-08T04:55:22.371Z,102854.63
2023-02-08T04:57:27.043Z,102857.77
2023-02-08T04:59:31.396Z,102854.19
2023-02-08T05:01:35.900Z,102852.2
2023-02-08T05:03:40.369Z,102847.35
2023-02-08T05:05:44.760Z,102846.59
2023-02-08T05:07:49.135Z,102844.55
2023-02-08T05:09:53.520Z,102840.67
2023-02-08T05:11:57.933Z,102843.5
2023-02-08T05:14:02.296Z,102845.27
2023-02-08T05:16:06.770Z,102846.55
2023-02-08T05:18:11.232Z,102847.3
2023-02-08T05:20:15.599Z,102848.73
2023-02-08T05:22:20.006Z,102850.62
2023-02-08T05:24:24.387Z,102846.27
2023-02-08T05:26:28.966Z,102837.36
2023-02-08T05:28:33.345Z,102837.34
2023-02-08T05:30:37.731Z,102841.56
2023-02-08T05:32:42.584Z,102844.76
2023-02-08T05:34:46.953Z,102848.57
2023-02-08T05:36:51.404Z,102847.48
2023-02-08T05:38:55.776Z,102848.39
2023-02-08T05:41:00.166Z,102851.03
2023-02-08T05:43:04.575Z,102856.34
2023-02-08T05:45:08.974Z,102858.16
2023-02-08T05:47:13.372Z,102861.32
2023-02-08T05:49:17.744Z,102857.23
2023-02-08T05:51:22.225Z,102864.03
2023-02-08T05:53:26.603Z,102857.02
2023-02-08T05:55:31.085Z,102852.62
2023-02-08T05:57:36.833Z,102856.13
2023-02-08T05:59:41.250Z,102859.53
2023-02-08T06:01:45.634Z,102865.39
2023-02-08T06:03:50.085Z,102867.02
2023-02-08T06:05:54.537Z,102866.59
2023-02-08T06:07:59.055Z,102865.05
2023-02-08T06:10:03.488Z,102864.52
2023-02-08T06:12:07.840Z,102863.9
2023-02-08T06:14:12.206Z,102864.03
2023-02-08T06:16:20.003Z,102865.91
2023-02-08T06:18:24.567Z,102865.66
2023-02-08T06:20:29.067Z,102866.49
2023-02-08T06:22:33.537Z,102871.16
2023-02-08T06:24:37.912Z,102870
2023-02-08T06:26:42.432Z,102866.41
2023-02-08T06:28:46.800Z,102866.08
2023-02-08T06:30:51.204Z,102865.02
2023-02-08T06:32:55.574Z,102862.36
2023-02-08T06:34:59.947Z,102869.89
2023-02-08T06:37:04.406Z,102867.02
2023-02-08T06:39:08.796Z,102859.91
2023-02-08T06:41:13.184Z,102865.92
2023-02-08T06:43:17.564Z,102865.58
2023-02-08T06:45:22.082Z,102864.3
2023-02-08T06:47:26.483Z,102868.69
2023-02-08T06:49:30.840Z,102869.58
2023-02-08T06:51:35.178Z,102866.59
2023-02-08T06:53:39.601Z,102874.52
2023-02-08T06:55:43.984Z,102882.64
2023-02-08T06:57:48.419Z,102881.47
2023-02-08T06:59:52.793Z,102880.27
2023-02-08T07:01:57.225Z,102882.3
2023-02-08T07:04:04.577Z,102884.38
2023-02-08T07:06:09.017Z,102889.94
2023-02-08T07:08:13.367Z,102889.81
2023-02-08T07:10:17.763Z,102889.05
2023-02-08T07:12:22.152Z,102893.13
2023-02-08T07:14:26.570Z,102895.74
2023-02-08T07:16:31.109Z,102897.77
2023-02-08T07:18:35.563Z,102904.91
2023-02-08T07:20:40.601Z,102908.11
2023-02-08T07:22:45.421Z,102914
2023-02-08T07:24:49.907Z,102914.02
2023-02-08T07:26:54.291Z,102918.31
2023-02-08T07:28:58.687Z,102923.89
2023-02-08T07:31:03.220Z,102922.55
2023-02-08T07:33:07.585Z,102920.95
2023-02-08T07:35:11.892Z,102925.52
2023-02-08T07:37:16.293Z,102932.11
2023-02-08T07:39:20.689Z,102936.28
2023-02-08T07:41:25.075Z,102930.38
2023-02-08T07:43:29.437Z,102936.32
2023-02-08T07:45:33.833Z,102942.28
2023-02-08T07:47:38.255Z,102938.7
2023-02-08T07:49:42.637Z,102941.18
2023-02-08T07:51:47.086Z,102946.63
2023-02-08T07:53:51.503Z,102946.86
2023-02-08T07:55:55.960Z,102952.4
2023-02-08T07:58:00.414Z,102950.75
2023-02-08T08:00:04.852Z,102951.13
2023-02-08T08:02:09.405Z,102954.8
2023-02-08T08:04:14.077Z,102956.83
2023-02-08T08:06:18.586Z,102957.39
2023-02-08T08:08:23.124Z,102957.43
2023-02-08T08:10:27.675Z,102954.52
2023-02-08T08:12:32.159Z,102952.93
2023-02-08T08:14:36.583Z,102956.42
2023-02-08T08:16:40.990Z,102951.5
2023-02-08T08:18:45.402Z,102958.51
2023-02-08T08:20:49.773Z,102951.72
2023-02-08T08:22:54.280Z,102954.94
2023-02-08T08:24:58.760Z,102957.22
2023-02-08T08:27:05.761Z,102953.41
2023-02-08T08:29:10.121Z,102950.39
2023-02-08T08:31:14.806Z,102945.7
2023-02-08T08:33:19.561Z,102951.28
2023-02-08T08:35:23.949Z,102945.95
2023-02-08T08:37:28.395Z,102947.83
2023-02-08T08:39:32.755Z,102948.7
2023-02-08T08:41:37.157Z,102946.08
2023-02-08T08:43:41.670Z,102943.65
2023-02-08T08:45:46.089Z,102941.94
2023-02-08T08:47:50.534Z,102945.95
2023-02-08T08:49:54.908Z,102940.18
2023-02-08T08:51:59.882Z,102940.52
2023-02-08T08:54:04.294Z,102937.77
2023-02-08T08:56:08.679Z,102941.56
2023-02-08T08:58:13.151Z,102945.34
2023-02-08T09:00:17.559Z,102945.51
2023-02-08T09:02:22.078Z,102949.98
2023-02-08T09:04:26.508Z,102946.91
2023-02-08T09:06:30.910Z,102951.58
2023-02-08T09:08:35.312Z,102947.67
2023-02-08T09:10:39.746Z,102949.48
2023-02-08T09:12:44.678Z,102952.72
2023-02-08T09:14:49.138Z,102950.97
2023-02-08T09:16:53.536Z,102948.84
2023-02-08T09:18:57.915Z,102951.5
2023-02-08T09:21:02.433Z,102948.86
2023-02-08T09:23:06.949Z,102946.41
2023-02-08T09:25:11.372Z,102956.63
2023-02-08T09:27:15.881Z,102952.47
2023-02-08T09:29:20.296Z,102951.64
2023-02-08T09:31:25.066Z,102955.38
2023-02-08T09:33:29.820Z,102952.48
2023-02-08T09:35:34.235Z,102954.86
2023-02-08T09:37:38.643Z,102952.02
2023-02-08T09:39:43.056Z,102950.13
2023-02-08T09:41:47.439Z,102957.69
2023-02-08T09:43:51.835Z,102948.47
2023-02-08T09:46:01.468Z,102950.99
2023-02-08T09:48:05.884Z,102951.27
2023-02-08T09:50:10.291Z,102950.38
2023-02-08T09:52:14.701Z,102950.89
2023-02-08T09:54:19.075Z,102952.85
2023-02-08T09:56:23.486Z,102950.3
2023-02-08T09:58:27.861Z,102939.8
2023-02-08T10:00:32.439Z,102950.33
2023-02-08T10:02:36.991Z,102954.23
2023-02-08T10:04:41.564Z,102951.34
2023-02-08T10:06:45.964Z,102950.33
2023-02-08T10:08:53.530Z,102951.47
2023-02-08T10:10:57.962Z,102950.16
2023-02-08T10:13:02.464Z,102947.84
2023-02-08T10:15:06.809Z,102944.73
2023-02-08T10:17:11.292Z,102940.45
2023-02-08T10:19:15.757Z,102942.8
2023-02-08T10:21:20.199Z,102942.02
2023-02-08T10:23:24.653Z,102939.59
2023-02-08T10:25:29.121Z,102937.59
2023-02-08T10:27:33.623Z,102934.86
2023-02-08T10:29:38.205Z,102933.95
2023-02-08T10:31:42.848Z,102924.86
2023-02-08T10:33:47.556Z,102925.77
2023-02-08T10:35:52.060Z,102926.8
2023-02-08T10:37:56.480Z,102924.23
2023-02-08T10:40:00.960Z,102924.29
2023-02-08T10:42:05.319Z,102923.89
2023-02-08T10:44:09.823Z,102921.41
2023-02-08T10:46:14.396Z,102917.44
2023-02-08T10:48:19.131Z,102917.16
2023-02-08T10:50:23.731Z,102919.77
2023-02-08T10:52:28.210Z,102913.98
2023-02-08T10:54:32.726Z,102918.59
2023-02-08T10:56:37.249Z,102914.92
2023-02-08T10:58:41.640Z,102911.81
2023-02-08T11:00:46.374Z,102909.66
2023-02-08T11:02:50.902Z,102902.8
2023-02-08T11:04:55.353Z,102904.82
2023-02-08T11:06:59.725Z,102895.72
2023-02-08T11:09:04.096Z,102898.84
2023-02-08T11:11:08.564Z,102886.34
2023-02-08T11:13:12.962Z,102889.17
2023-02-08T11:15:17.394Z,102891.59
2023-02-08T11:17:21.793Z,102902.55
2023-02-08T11:19:26.224Z,102906.45
2023-02-08T11:21:30.642Z,102888.5
2023-02-08T11:23:35.164Z,102882.52
2023-02-08T11:25:39.600Z,102885.63
2023-02-08T11:27:44.221Z,102883.22
2023-02-08T11:29:48.710Z,102878.19
2023-02-08T11:31:53.161Z,102876.64
2023-02-08T11:33:57.895Z,102876.34
2023-02-08T11:36:02.330Z,102877.25
2023-02-08T11:38:06.684Z,102876.55
2023-02-08T11:40:11.091Z,102872.44
2023-02-08T11:42:15.490Z,102872.06
2023-02-08T11:44:19.881Z,102870.13
2023-02-08T11:46:24.405Z,102874.91
2023-02-08T11:48:28.937Z,102870.41
2023-02-08T11:50:33.318Z,102876.26
2023-02-08T11:52:37.744Z,102874.73
2023-02-08T11:54:42.307Z,102880.42
2023-02-08T11:56:46.680Z,102870.61
2023-02-08T11:58:51.174Z,102869.63
2023-02-08T12:00:55.588Z,102865.26
2023-02-08T12:02:59.996Z,102858.52
2023-02-08T12:05:04.502Z,102866.68
2023-02-08T12:07:08.879Z,102860.77
2023-02-08T12:09:13.295Z,102853.92
2023-02-08T12:11:17.718Z,102859.48
2023-02-08T12:13:22.143Z,102852.58
2023-02-08T12:15:26.623Z,102857.7
2023-02-08T12:17:31.227Z,102860.14
2023-02-08T12:19:35.835Z,102863.38
2023-02-08T12:21:40.357Z,102852.96
2023-02-08T12:23:44.830Z,102853.55
2023-02-08T12:25:49.346Z,102852.58
2023-02-08T12:27:53.923Z,102858.66
2023-02-08T12:29:58.318Z,102858.13
2023-02-08T12:32:02.751Z,102860.32
2023-02-08T12:34:07.114Z,102852.84
2023-02-08T12:36:12.413Z,102852.31
2023-02-08T12:38:17.039Z,102858.7
2023-02-08T12:40:21.430Z,102851.77
2023-02-08T12:42:25.975Z,102848.67
2023-02-08T12:44:30.479Z,102852.25
2023-02-08T12:46:35.020Z,102855.13
2023-02-08T12:48:39.914Z,102852.33
2023-02-08T12:50:44.328Z,102845.58
2023-02-08T12:52:48.730Z,102838.55
2023-02-08T12:54:53.154Z,102842.36
2023-02-08T12:57:03.518Z,102841.36
2023-02-08T12:59:14.775Z,102832.75
2023-02-08T13:01:19.355Z,102833.61
2023-02-08T13:03:23.941Z,102841.91
2023-02-08T13:05:28.455Z,102839.39
2023-02-08T13:07:32.838Z,102837.23
2023-02-08T13:09:37.298Z,102843.56
2023-02-08T13:11:41.754Z,102839.66
2023-02-08T13:13:46.121Z,102830.27
2023-02-08T13:15:50.668Z,102835.17
2023-02-08T13:17:55.546Z,102829.88
2023-02-08T13:20:01.723Z,102831.61
2023-02-08T13:22:06.158Z,102828.43
2023-02-08T13:24:13.433Z,102829.91
2023-02-08T13:26:23.957Z,102829.63
2023-02-08T13:28:28.796Z,102825.17
2023-02-08T13:30:33.663Z,102825.36
2023-02-08T13:32:38.084Z,102824.6
2023-02-08T13:34:42.393Z,102822.2
2023-02-08T13:36:46.727Z,102822.13
2023-02-08T13:38:51.058Z,102816.22
2023-02-08T13:40:55.388Z,102817.7
2023-02-08T13:42:59.712Z,102819.39
2023-02-08T13:45:04.125Z,102814.61
2023-02-08T13:47:08.544Z,102816.15
2023-02-08T13:49:12.948Z,102810.72
2023-02-08T13:51:17.401Z,102816.06
2023-02-08T13:53:21.745Z,102818.29
2023-02-08T13:55:26.228Z,102817.8
2023-02-08T13:57:30.619Z,102821.09
2023-02-08T13:59:35.274Z,102818.66
2023-02-08T14:01:39.764Z,102818.94
2023-02-08T14:03:44.334Z,102817.37
2023-02-08T14:05:48.750Z,102816.8
2023-02-08T14:07:53.181Z,102812.44
2023-02-08T14:09:57.741Z,102815.33
2023-02-08T14:12:02.106Z,102812.08
2023-02-08T14:14:06.496Z,102806.89
2023-02-08T14:16:11.025Z,102804.62
2023-02-08T14:18:15.488Z,102807.39
2023-02-08T14:20:19.915Z,102802.93
2023-02-08T14:22:24.733Z,102802.81
2023-02-08T14:24:29.175Z,102796.86
2023-02-08T14:26:33.603Z,102794.96
2023-02-08T14:28:38.037Z,102795.92
2023-02-08T14:30:43.353Z,102799.55
2023-02-08T14:32:48.303Z,102790.95
2023-02-08T14:34:52.717Z,102789.97
2023-02-08T14:36:57.157Z,102791.22
2023-02-08T14:39:01.545Z,102784.03
2023-02-08T14:41:05.900Z,102781.97
2023-02-08T14:43:10.383Z,102780.59
2023-02-08T14:45:14.826Z,102782.05
2023-02-08T14:47:19.353Z,102773.19
2023-02-08T14:49:23.728Z,102769.62
2023-02-08T14:51:28.302Z,102766.81
2023-02-08T14:53:32.724Z,102766.69
2023-02-08T14:55:37.116Z,102770.14
2023-02-08T14:57:41.505Z,102769.35
2023-02-08T14:59:45.908Z,102772.37
2023-02-08T15:01:50.308Z,102772.09
2023-02-08T15:03:54.837Z,102774.04
2023-02-08T15:05:59.629Z,102775.33
2023-02-08T15:08:04.165Z,102783.16
2023-02-08T15:10:08.645Z,102786.16
2023-02-08T15:12:13.037Z,102783.95
2023-02-08T15:14:17.474Z,102785.2
2023-02-08T15:16:22.049Z,102782.84
2023-02-08T15:18:26.490Z,102783.65
2023-02-08T15:20:30.887Z,102784.88
2023-02-08T15:22:35.273Z,102779.67
2023-02-08T15:24:39.845Z,102776.78
2023-02-08T15:26:44.289Z,102788.11
2023-02-08T15:28:48.751Z,102776.8
2023-02-08T15:30:53.464Z,102783.41
2023-02-08T15:32:57.952Z,102783.59
2023-02-08T15:35:02.353Z,102784.64
2023-02-08T15:37:06.778Z,102780.27
2023-02-08T15:39:11.216Z,102781.07
2023-02-08T15:41:15.734Z,102782.69
2023-02-08T15:43:20.115Z,102780.94
2023-02-08T15:45:25.602Z,102785.65
2023-02-08T15:47:30.024Z,102778.63
2023-02-08T15:49:34.440Z,102773.86
2023-02-08T15:51:38.889Z,102778.94
2023-02-08T15:53:43.284Z,102782.59
2023-02-08T15:55:47.731Z,102779.85
2023-02-08T15:57:52.160Z,102779.9
2023-02-08T15:59:56.579Z,102777.91
2023-02-08T16:02:00.979Z,102773.72
2023-02-08T16:04:05.604Z,102764.31
2023-02-08T16:06:10.132Z,102770.47
2023-02-08T16:08:14.515Z,102770.69
2023-02-08T16:10:18.933Z,102762.84
2023-02-08T16:12:23.364Z,102769.53
2023-02-08T16:14:37.495Z,102766.61
2023-02-08T16:16:56.116Z,102766.18
2023-02-08T16:19:00.803Z,102770.08
2023-02-08T16:21:05.259Z,102762.36
2023-02-08T16:23:09.860Z,102765.59
2023-02-08T16:25:14.307Z,102764.69
2023-02-08T16:27:18.691Z,102763.2
2023-02-08T16:29:23.290Z,102763.88
2023-02-08T16:31:28.307Z,102755.63
2023-02-08T16:33:33.044Z,102757.31
2023-02-08T16:35:37.508Z,102752.62
2023-02-08T16:37:42.078Z,102748.05
2023-02-08T16:39:46.524Z,102754.78
2023-02-08T16:41:51.140Z,102754.91
2023-02-08T16:43:55.653Z,102751.05
2023-02-08T16:46:00.201Z,102757.63
2023-02-08T16:48:19.070Z,102752.78
2023-02-08T16:50:23.621Z,102750.96
2023-02-08T16:52:28.052Z,102750.86
2023-02-08T16:54:32.436Z,102748.91
2023-02-08T16:56:36.851Z,102748.52
2023-02-08T16:58:41.340Z,102749.06
2023-02-08T17:00:46.493Z,102749.27
2023-02-08T17:02:51.062Z,102745.88
2023-02-08T17:04:55.514Z,102740.59
2023-02-08T17:06:59.981Z,102745.19
2023-02-08T17:09:04.479Z,102743.7
2023-02-08T17:11:08.871Z,102740.2
2023-02-08T17:13:21.630Z,102741.02
2023-02-08T17:15:26.297Z,102734.42
2023-02-08T17:17:30.902Z,102731.47
2023-02-08T17:19:35.300Z,102733.05
2023-02-08T17:21:39.713Z,102738.98
2023-02-08T17:23:44.227Z,102738.97
2023-02-08T17:25:48.653Z,102736.69
2023-02-08T17:27:53.121Z,102738.92
2023-02-08T17:29:57.567Z,102740.88
2023-02-08T17:32:01.975Z,102741.7
2023-02-08T17:34:06.517Z,102736.47
2023-02-08T17:36:10.925Z,102738.3
2023-02-08T17:38:15.405Z,102732.67
2023-02-08T17:40:19.965Z,102736.07
2023-02-08T17:42:24.587Z,102735.87
2023-02-08T17:44:29.013Z,102736.86
2023-02-08T17:46:33.552Z,102742.12
2023-02-08T17:48:38.079Z,102742.67
2023-02-08T17:50:43.114Z,102737.75
2023-02-08T17:52:48.322Z,102737.59
2023-02-08T17:54:52.809Z,102731.77
2023-02-08T17:56:57.197Z,102736.25
2023-02-08T17:59:01.621Z,102727.53
2023-02-08T18:01:06.900Z,102740.89
2023-02-08T18:03:12.264Z,102725.28
2023-02-08T18:05:16.901Z,102726.58
2023-02-08T18:07:21.312Z,102723.98
2023-02-08T18:09:25.778Z,102724.69
2023-02-08T18:11:30.192Z,102719.48
2023-02-08T18:13:34.656Z,102718.53
2023-02-08T18:15:39.134Z,102716.84
2023-02-08T18:17:43.676Z,102721.56
2023-02-08T18:19:48.107Z,102714.52
2023-02-08T18:21:52.533Z,102713.04
2023-02-08T18:23:56.955Z,102709.03
2023-02-08T18:26:01.362Z,102707.78
2023-02-08T18:28:05.848Z,102705.69
2023-02-08T18:30:10.378Z,102700.34
2023-02-08T18:32:14.951Z,102698.17
2023-02-08T18:34:19.670Z,102702.9
2023-02-08T18:36:24.053Z,102702.43
2023-02-08T18:38:28.474Z,102695.41
2023-02-08T18:40:33.451Z,102693.22
2023-02-08T18:42:37.860Z,102696.73
2023-02-08T18:44:42.229Z,102686.42
2023-02-08T18:46:46.805Z,102685.41
2023-02-08T18:48:51.372Z,102689.15
2023-02-08T18:50:55.790Z,102686.23
2023-02-08T18:53:00.159Z,102685.36
2023-02-08T18:55:04.599Z,102683.38
2023-02-08T18:57:09.011Z,102679.96
2023-02-08T18:59:13.441Z,102678.45
2023-02-08T19:01:17.906Z,102678.28
2023-02-08T19:03:22.300Z,102679.65
2023-02-08T19:05:26.749Z,102680.6
2023-02-08T19:07:31.159Z,102679.89
2023-02-08T19:09:35.571Z,102677.25
2023-02-08T19:11:40.020Z,102692.05
2023-02-08T19:13:44.436Z,102680.28
2023-02-08T19:15:48.866Z,102672.78
2023-02-08T19:17:53.281Z,102679.06
2023-02-08T19:19:57.708Z,102685.02
2023-02-08T19:22:02.176Z,102697.91
2023-02-08T19:24:06.502Z,102690.88
2023-02-08T19:26:10.902Z,102695.08
2023-02-08T19:28:15.541Z,102692.27
2023-02-08T19:30:19.932Z,102694.59
2023-02-08T19:32:24.280Z,102698.88
2023-02-08T19:34:28.621Z,102706.59
2023-02-08T19:36:32.944Z,102700.73
2023-02-08T19:38:37.405Z,102702.36
2023-02-08T19:40:42.030Z,102714.22
2023-02-08T19:42:46.568Z,102708.55
2023-02-08T19:44:51.066Z,102713.3
2023-02-08T19:46:55.498Z,102713.28
2023-02-08T19:48:59.992Z,102716.7
2023-02-08T19:51:04.616Z,102708.72
2023-02-08T19:53:09.024Z,102706.31
2023-02-08T19:55:13.442Z,102694.81
2023-02-08T19:57:17.926Z,102697.21
2023-02-08T19:59:22.341Z,102701.27
2023-02-08T20:01:26.949Z,102700.24
2023-02-08T20:03:31.584Z,102696.36
2023-02-08T20:05:36.077Z,102690.52
2023-02-08T20:07:40.532Z,102689.91
2023-02-08T20:09:44.999Z,102686.65
2023-02-08T20:11:58.260Z,102685.56
2023-02-08T20:14:02.826Z,102686.66
2023-02-08T20:16:07.378Z,102663.55
2023-02-08T20:18:11.879Z,102682.16
2023-02-08T20:20:16.407Z,102680.13
2023-02-08T20:22:20.858Z,102685.83
2023-02-08T20:24:25.322Z,102686.7
2023-02-08T20:26:29.836Z,102673.39
2023-02-08T20:28:34.342Z,102674.98
2023-02-08T20:30:38.980Z,102674.36
2023-02-08T20:32:43.728Z,102672.34
2023-02-08T20:35:00.128Z,102675.3
2023-02-08T20:37:08.839Z,102669.88
2023-02-08T20:39:13.409Z,102665.18
2023-02-08T20:41:17.882Z,102660.45
2023-02-08T20:43:22.379Z,102657.95
2023-02-08T20:45:26.966Z,102661.23
2023-02-08T20:47:45.868Z,102657.57
2023-02-08T20:49:51.011Z,102655.56
2023-02-08T20:51:55.514Z,102644.67
2023-02-08T20:54:00.052Z,102645.36
2023-02-08T20:56:04.537Z,102641.44
2023-02-08T20:58:08.974Z,102632.75
2023-02-08T21:00:13.597Z,102632.65
2023-02-08T21:02:18.237Z,102636.27
2023-02-08T21:04:22.763Z,102623.99
2023-02-08T21:06:27.579Z,102633.31
2023-02-08T21:08:32.164Z,102630.48
2023-02-08T21:10:36.566Z,102626.93
2023-02-08T21:12:41.111Z,102632.41
2023-02-08T21:14:45.655Z,102631
2023-02-08T21:16:50.369Z,102634.16
2023-02-08T21:18:54.968Z,102631.59
2023-02-08T21:20:59.376Z,102628.74
2023-02-08T21:23:03.792Z,102626.88
2023-02-08T21:25:08.212Z,102617.83
2023-02-08T21:27:12.744Z,102617.34
2023-02-08T21:29:17.124Z,102616.73
2023-02-08T21:31:21.902Z,102610.27
2023-02-08T21:33:26.784Z,102619.27
2023-02-08T21:35:31.294Z,102618.1
2023-02-08T21:37:35.732Z,102610.91
2023-02-08T21:39:40.129Z,102602.52
2023-02-08T21:41:44.616Z,102603.4
2023-02-08T21:43:49.179Z,102605.8
2023-02-08T21:45:53.824Z,102610.23
2023-02-08T21:47:58.511Z,102606.14
2023-02-08T21:50:02.924Z,102609.15
2023-02-08T21:52:07.439Z,102610.63
2023-02-08T21:54:11.990Z,102606.96
2023-02-08T21:56:16.520Z,102601.92
2023-02-08T21:58:21.044Z,102600.42
2023-02-08T22:00:25.463Z,102595.59
2023-02-08T22:02:29.841Z,102591.59
2023-02-08T22:04:34.234Z,102591.89
2023-02-08T22:06:38.660Z,102588.69
2023-02-08T22:08:43.056Z,102592.47
2023-02-08T22:10:58.928Z,102585.91
2023-02-08T22:13:04.041Z,102586
2023-02-08T22:15:08.505Z,102585.48
2023-02-08T22:17:12.917Z,102586.77
2023-02-08T22:19:17.326Z,102583.2
2023-02-08T22:21:21.810Z,102588.92
2023-02-08T22:23:26.324Z,102584.86
2023-02-08T22:25:30.790Z,102582.91
2023-02-08T22:27:35.216Z,102584.7
2023-02-08T22:29:39.604Z,102576.46
2023-02-08T22:31:44.368Z,102571.53
2023-02-08T22:33:49.080Z,102570.67
2023-02-08T22:35:53.434Z,102562.81
2023-02-08T22:37:57.831Z,102567.4
2023-02-08T22:40:02.324Z,102564.27
2023-02-08T22:42:06.754Z,102564.63
2023-02-08T22:44:11.183Z,102562.78
2023-02-08T22:46:15.773Z,102561.23
2023-02-08T22:48:20.512Z,102557.38
2023-02-08T22:50:25.118Z,102553.01
2023-02-08T22:52:29.672Z,102551.28
2023-02-08T22:54:34.110Z,102551.7
2023-02-08T22:56:38.652Z,102545.8
2023-02-08T22:58:43.099Z,102538.45
2023-02-08T23:00:48.057Z,102547.67
2023-02-08T23:02:52.687Z,102543.58
2023-02-08T23:04:57.242Z,102542.85
2023-02-08T23:07:01.722Z,102539.78
2023-02-08T23:09:06.090Z,102543.97
2023-02-08T23:11:10.507Z,102528.03
2023-02-08T23:13:14.878Z,102529.66
2023-02-08T23:15:19.274Z,102525.88
2023-02-08T23:17:23.660Z,102524.58
2023-02-08T23:19:28.038Z,102524.39
2023-02-08T23:21:32.456Z,102523.88
2023-02-08T23:23:36.865Z,102522.65
2023-02-08T23:25:41.273Z,102518.17
2023-02-08T23:27:45.704Z,102516.47
2023-02-08T23:29:50.087Z,102509.88
2023-02-08T23:31:54.855Z,102506.74
2023-02-08T23:33:59.354Z,102505.94
2023-02-08T23:36:03.807Z,102498.16
2023-02-08T23:38:08.246Z,102501.16
2023-02-08T23:40:12.699Z,102501.53
2023-02-08T23:42:17.149Z,102499.61
2023-02-08T23:44:21.585Z,102499.1
2023-02-08T23:46:26.080Z,102498.3
2023-02-08T23:48:30.650Z,102496.07